Time,TemperatureF,DewpointF,PressureIn,WindDirection,WindDirectionDegrees,WindSpeedMPH,WindSpeedGustMPH,Humidity,HourlyPrecipIn,Conditions,Clouds,dailyrainin,SoftwareType,DateUTC
2014-03-27 00:10:00,49.8,48.0,29.96,West,273,0.0,-999.0,93,-99.99,,,0.00,weatherlink.com 1.10,2014-03-27 07:10:00,
2014-03-27 00:25:00,49.4,48.0,29.96,West,273,0.0,-999.0,94,-99.99,,,0.00,weatherlink.com 1.10,2014-03-27 07:25:00,
2014-03-27 00:40:00,49.4,48.0,29.96,West,273,0.0,-999.0,94,-99.99,,,0.00,weatherlink.com 1.10,2014-03-27 07:40:00,
2014-03-27 00:55:00,49.4,48.0,29.96,West,273,0.0,-999.0,94,-99.99,,,0.00,weatherlink.com 1.10,2014-03-27 07:55:00,
2014-03-27 01:10:00,49.6,48.0,29.96,West,273,0.0,-999.0,95,-99.99,,,0.00,weatherlink.com 1.10,2014-03-27 08:10:00,
2014-03-27 01:25:00,49.8,49.0,29.96,West,273,0.0,-999.0,95,-99.99,,,0.00,weatherlink.com 1.10,2014-03-27 08:25:00,
2014-03-27 01:40:00,49.9,49.0,29.96,West,273,0.0,-999.0,95,-99.99,,,0.00,weatherlink.com 1.10,2014-03-27 08:40:00,
2014-03-27 01:56:00,49.8,49.0,29.97,West,273,0.0,-999.0,95,-99.99,,,0.00,weatherlink.com 1.10,2014-03-27 08:56:00,
2014-03-27 02:11:00,49.5,48.0,29.97,West,273,0.0,-999.0,95,-99.99,,,0.00,weatherlink.com 1.10,2014-03-27 09:11:00,
2014-03-27 02:26:00,49.7,48.0,29.97,West,273,0.0,-999.0,95,-99.99,,,0.00,weatherlink.com 1.10,2014-03-27 09:26:00,
2014-03-27 02:41:00,49.9,49.0,29.97,West,273,0.0,-999.0,95,-99.99,,,0.00,weatherlink.com 1.10,2014-03-27 09:41:00,
2014-03-27 02:56:00,49.7,48.0,29.96,West,273,0.0,-999.0,95,-99.99,,,0.00,weatherlink.com 1.10,2014-03-27 09:56:00,
2014-03-27 03:11:00,49.4,48.0,29.97,West,273,0.0,-999.0,95,-99.99,,,0.00,weatherlink.com 1.10,2014-03-27 10:11:00,
2014-03-27 03:26:00,49.5,48.0,29.96,West,273,0.0,-999.0,95,-99.99,,,0.00,weatherlink.com 1.10,2014-03-27 10:26:00,
2014-03-27 03:41:00,49.8,49.0,29.96,West,273,0.0,-999.0,95,-99.99,,,0.00,weatherlink.com 1.10,2014-03-27 10:41:00,
2014-03-27 03:56:00,49.9,49.0,29.96,West,273,0.0,-999.0,96,-99.99,,,0.00,weatherlink.com 1.10,2014-03-27 10:56:00,
2014-03-27 04:11:00,49.9,49.0,29.96,West,273,0.0,-999.0,95,-99.99,,,0.00,weatherlink.com 1.10,2014-03-27 11:11:00,
2014-03-27 04:26:00,49.9,49.0,29.96,West,273,0.0,-999.0,95,-99.99,,,0.00,weatherlink.com 1.10,2014-03-27 11:26:00,
2014-03-27 04:41:00,49.6,48.0,29.97,West,273,0.0,-999.0,95,-99.99,,,0.00,weatherlink.com 1.10,2014-03-27 11:41:00,
2014-03-27 04:56:00,49.6,48.0,29.97,West,273,0.0,-999.0,95,-99.99,,,0.00,weatherlink.com 1.10,2014-03-27 11:56:00,
2014-03-27 05:11:00,49.7,48.0,29.97,West,273,0.0,-999.0,95,-99.99,,,0.00,weatherlink.com 1.10,2014-03-27 12:11:00,
2014-03-27 05:26:00,49.8,49.0,29.97,West,273,0.0,-999.0,95,-99.99,,,0.00,weatherlink.com 1.10,2014-03-27 12:26:00,
2014-03-27 05:41:00,49.8,49.0,29.98,West,273,0.0,-999.0,95,-99.99,,,0.00,weatherlink.com 1.10,2014-03-27 12:41:00,
2014-03-27 05:56:00,49.9,49.0,29.98,West,273,0.0,-999.0,95,-99.99,,,0.00,weatherlink.com 1.10,2014-03-27 12:56:00,
2014-03-27 06:11:00,49.8,49.0,29.99,West,273,0.0,-999.0,95,-99.99,,,0.00,weatherlink.com 1.10,2014-03-27 13:11:00,
2014-03-27 06:26:00,49.8,49.0,29.99,West,273,0.0,-999.0,95,-99.99,,,0.00,weatherlink.com 1.10,2014-03-27 13:26:00,
2014-03-27 06:41:00,49.8,49.0,30.00,West,273,0.0,-999.0,95,-99.99,,,0.00,weatherlink.com 1.10,2014-03-27 13:41:00,
2014-03-27 06:56:00,49.8,49.0,30.00,West,273,0.0,-999.0,95,-99.99,,,0.00,weatherlink.com 1.10,2014-03-27 13:56:00,
2014-03-27 07:11:00,49.9,49.0,30.00,West,273,0.0,-999.0,96,-99.99,,,0.00,weatherlink.com 1.10,2014-03-27 14:11:00,
2014-03-27 07:26:00,49.8,49.0,30.01,West,273,0.0,-999.0,95,-99.99,,,0.01,weatherlink.com 1.10,2014-03-27 14:26:00,
2014-03-27 07:41:00,50.0,49.0,30.02,West,273,0.0,-999.0,95,-99.99,,,0.01,weatherlink.com 1.10,2014-03-27 14:41:00,
2014-03-27 07:56:00,50.3,49.0,30.02,West,273,0.0,-999.0,95,-99.99,,,0.01,weatherlink.com 1.10,2014-03-27 14:56:00,
2014-03-27 08:11:00,50.4,49.0,30.03,West,273,0.0,-999.0,95,-99.99,,,0.01,weatherlink.com 1.10,2014-03-27 15:11:00,
2014-03-27 08:26:00,50.7,49.0,30.03,West,273,0.0,-999.0,95,-99.99,,,0.01,weatherlink.com 1.10,2014-03-27 15:26:00,
2014-03-27 08:41:00,51.1,50.0,30.03,West,273,0.0,-999.0,96,-99.99,,,0.01,weatherlink.com 1.10,2014-03-27 15:41:00,
2014-03-27 08:56:00,51.3,50.0,30.03,West,273,0.0,-999.0,95,-99.99,,,0.01,weatherlink.com 1.10,2014-03-27 15:56:00,
2014-03-27 09:11:00,51.4,50.0,30.04,West,271,0.0,-999.0,94,-99.99,,,0.01,weatherlink.com 1.10,2014-03-27 16:11:00,
2014-03-27 09:26:00,51.6,50.0,30.04,West,266,0.0,-999.0,94,-99.99,,,0.01,weatherlink.com 1.10,2014-03-27 16:26:00,
2014-03-27 09:41:00,51.9,50.0,30.05,West,264,0.0,-999.0,92,-99.99,,,0.01,weatherlink.com 1.10,2014-03-27 16:41:00,
2014-03-27 09:56:00,52.2,50.0,30.05,WSW,241,0.0,-999.0,92,-99.99,,,0.01,weatherlink.com 1.10,2014-03-27 16:56:00,
2014-03-27 10:11:00,52.8,51.0,30.06,WSW,241,0.0,-999.0,92,-99.99,,,0.01,weatherlink.com 1.10,2014-03-27 17:11:00,
2014-03-27 10:26:00,54.3,51.0,30.06,WSW,242,1.0,-999.0,89,-99.99,,,0.01,weatherlink.com 1.10,2014-03-27 17:26:00,
2014-03-27 10:41:00,55.0,52.0,30.06,WSW,242,0.0,-999.0,89,-99.99,,,0.01,weatherlink.com 1.10,2014-03-27 17:41:00,
2014-03-27 10:56:00,55.5,51.0,30.06,South,186,0.0,-999.0,84,-99.99,,,0.01,weatherlink.com 1.10,2014-03-27 17:56:00,
2014-03-27 11:11:00,56.9,50.0,30.07,SW,227,4.0,-999.0,79,-99.99,,,0.01,weatherlink.com 1.10,2014-03-27 18:11:00,
2014-03-27 11:26:00,57.4,51.0,30.06,South,174,0.0,-999.0,80,-99.99,,,0.01,weatherlink.com 1.10,2014-03-27 18:26:00,
2014-03-27 11:42:00,58.6,50.0,30.06,SSW,198,2.0,-999.0,74,-99.99,,,0.01,weatherlink.com 1.10,2014-03-27 18:42:00,
2014-03-27 11:57:00,59.8,52.0,30.07,SSW,199,5.0,-999.0,74,-99.99,,,0.01,weatherlink.com 1.10,2014-03-27 18:57:00,
2014-03-27 12:12:00,61.1,50.0,30.07,SSW,200,1.0,-999.0,68,-99.99,,,0.01,weatherlink.com 1.10,2014-03-27 19:12:00,
2014-03-27 12:27:00,61.0,50.0,30.07,South,188,2.0,-999.0,67,-99.99,,,0.01,weatherlink.com 1.10,2014-03-27 19:27:00,
2014-03-27 12:42:00,60.4,48.0,30.07,South,189,4.0,-999.0,63,-99.99,,,0.01,weatherlink.com 1.10,2014-03-27 19:42:00,
2014-03-27 12:57:00,61.5,48.0,30.07,SSW,207,4.0,-999.0,62,-99.99,,,0.01,weatherlink.com 1.10,2014-03-27 19:57:00,
2014-03-27 13:12:00,62.6,51.0,30.07,SW,225,5.0,-999.0,65,-99.99,,,0.01,weatherlink.com 1.10,2014-03-27 20:12:00,
2014-03-27 13:27:00,60.9,46.0,30.07,SSW,212,4.0,-999.0,59,-99.99,,,0.01,weatherlink.com 1.10,2014-03-27 20:27:00,
2014-03-27 13:42:00,60.5,50.0,30.06,SSW,203,1.0,-999.0,69,-99.99,,,0.01,weatherlink.com 1.10,2014-03-27 20:42:00,
2014-03-27 13:57:00,61.6,48.0,30.05,SW,226,5.0,-999.0,61,-99.99,,,0.01,weatherlink.com 1.10,2014-03-27 20:57:00,
2014-03-27 14:12:00,61.3,48.0,30.05,SSW,206,5.0,-999.0,61,-99.99,,,0.01,weatherlink.com 1.10,2014-03-27 21:12:00,
2014-03-27 14:27:00,61.5,49.0,30.05,SW,216,5.0,-999.0,64,-99.99,,,0.01,weatherlink.com 1.10,2014-03-27 21:27:00,
2014-03-27 14:42:00,61.4,49.0,30.05,South,181,2.0,-999.0,65,-99.99,,,0.01,weatherlink.com 1.10,2014-03-27 21:42:00,
2014-03-27 14:57:00,61.1,48.0,30.05,SW,223,2.0,-999.0,62,-99.99,,,0.01,weatherlink.com 1.10,2014-03-27 21:57:00,
2014-03-27 15:12:00,61.4,49.0,30.05,SW,217,0.0,-999.0,63,-99.99,,,0.01,weatherlink.com 1.10,2014-03-27 22:12:00,
2014-03-27 15:27:00,61.4,48.0,30.05,SW,217,1.0,-999.0,61,-99.99,,,0.01,weatherlink.com 1.10,2014-03-27 22:27:00,
2014-03-27 15:42:00,62.2,47.0,30.04,South,185,2.0,-999.0,58,-99.99,,,0.01,weatherlink.com 1.10,2014-03-27 22:42:00,
2014-03-27 15:57:00,62.3,48.0,30.04,WSW,240,0.0,-999.0,59,-99.99,,,0.01,weatherlink.com 1.10,2014-03-27 22:57:00,
2014-03-27 16:12:00,62.1,47.0,30.04,SSW,197,1.0,-999.0,58,-99.99,,,0.01,weatherlink.com 1.10,2014-03-27 23:12:00,
2014-03-27 16:27:00,62.9,48.0,30.04,SW,225,4.0,-999.0,58,-99.99,,,0.01,weatherlink.com 1.10,2014-03-27 23:27:00,
2014-03-27 16:42:00,62.7,47.0,30.03,SSW,205,0.0,-999.0,56,-99.99,,,0.01,weatherlink.com 1.10,2014-03-27 23:42:00,
2014-03-27 16:57:00,63.6,48.0,30.03,SSW,193,0.0,-999.0,58,-99.99,,,0.01,weatherlink.com 1.10,2014-03-27 23:57:00,
2014-03-27 17:12:00,64.3,49.0,30.03,SSW,200,0.0,-999.0,57,-99.99,,,0.01,weatherlink.com 1.10,2014-03-28 00:12:00,
2014-03-27 17:27:00,64.0,48.0,30.03,NNW,334,1.0,-999.0,56,-99.99,,,0.01,weatherlink.com 1.10,2014-03-28 00:27:00,
2014-03-27 17:42:00,64.0,49.0,30.04,West,278,2.0,-999.0,58,-99.99,,,0.01,weatherlink.com 1.10,2014-03-28 00:42:00,
2014-03-27 17:57:00,63.3,47.0,30.04,NW,318,0.0,-999.0,56,-99.99,,,0.01,weatherlink.com 1.10,2014-03-28 00:57:00,
2014-03-27 18:12:00,61.7,47.0,30.04,WSW,258,1.0,-999.0,60,-99.99,,,0.01,weatherlink.com 1.10,2014-03-28 01:12:00,
2014-03-27 18:27:00,60.1,47.0,30.05,WSW,239,0.0,-999.0,63,-99.99,,,0.01,weatherlink.com 1.10,2014-03-28 01:27:00,
2014-03-27 18:42:00,59.0,48.0,30.05,WSW,257,2.0,-999.0,67,-99.99,,,0.01,weatherlink.com 1.10,2014-03-28 01:42:00,
2014-03-27 18:57:00,58.1,47.0,30.06,South,188,0.0,-999.0,67,-99.99,,,0.01,weatherlink.com 1.10,2014-03-28 01:57:00,
2014-03-27 19:12:00,57.4,47.0,30.06,SSW,213,0.0,-999.0,68,-99.99,,,0.01,weatherlink.com 1.10,2014-03-28 02:12:00,
2014-03-27 19:27:00,56.9,47.0,30.06,SW,229,0.0,-999.0,69,-99.99,,,0.01,weatherlink.com 1.10,2014-03-28 02:27:00,
2014-03-27 19:42:00,56.5,47.0,30.07,SW,225,0.0,-999.0,70,-99.99,,,0.01,weatherlink.com 1.10,2014-03-28 02:42:00,
2014-03-27 19:57:00,56.2,47.0,30.07,SW,225,0.0,-999.0,72,-99.99,,,0.01,weatherlink.com 1.10,2014-03-28 02:57:00,
2014-03-27 20:12:00,55.5,47.0,30.07,SW,225,0.0,-999.0,73,-99.99,,,0.01,weatherlink.com 1.10,2014-03-28 03:12:00,
2014-03-27 20:27:00,54.9,47.0,30.07,SW,225,0.0,-999.0,75,-99.99,,,0.01,weatherlink.com 1.10,2014-03-28 03:27:00,
2014-03-27 20:42:00,54.1,47.0,30.07,SW,225,0.0,-999.0,76,-99.99,,,0.01,weatherlink.com 1.10,2014-03-28 03:42:00,
2014-03-27 20:57:00,53.7,47.0,30.08,SW,225,0.0,-999.0,78,-99.99,,,0.01,weatherlink.com 1.10,2014-03-28 03:57:00,
2014-03-27 21:12:00,53.1,47.0,30.08,SW,225,0.0,-999.0,80,-99.99,,,0.01,weatherlink.com 1.10,2014-03-28 04:12:00,
2014-03-27 21:27:00,52.6,47.0,30.09,SW,225,0.0,-999.0,82,-99.99,,,0.01,weatherlink.com 1.10,2014-03-28 04:27:00,
2014-03-27 21:42:00,52.5,48.0,30.09,SW,225,0.0,-999.0,83,-99.99,,,0.01,weatherlink.com 1.10,2014-03-28 04:42:00,
2014-03-27 21:57:00,52.8,47.0,30.10,SW,225,0.0,-999.0,82,-99.99,,,0.01,weatherlink.com 1.10,2014-03-28 04:57:00,
2014-03-27 22:12:00,53.1,48.0,30.10,SW,225,0.0,-999.0,83,-99.99,,,0.01,weatherlink.com 1.10,2014-03-28 05:12:00,
2014-03-27 22:27:00,53.2,48.0,30.11,SW,225,0.0,-999.0,83,-99.99,,,0.01,weatherlink.com 1.10,2014-03-28 05:27:00,
2014-03-27 22:42:00,53.1,48.0,30.11,SW,225,0.0,-999.0,84,-99.99,,,0.01,weatherlink.com 1.10,2014-03-28 05:42:00,
2014-03-27 22:57:00,52.8,48.0,30.11,SW,225,0.0,-999.0,83,-99.99,,,0.01,weatherlink.com 1.10,2014-03-28 05:57:00,
2014-03-27 23:12:00,52.6,48.0,30.11,SW,225,0.0,-999.0,83,-99.99,,,0.01,weatherlink.com 1.10,2014-03-28 06:12:00,
2014-03-27 23:27:00,52.4,48.0,30.12,SW,225,0.0,-999.0,84,-99.99,,,0.01,weatherlink.com 1.10,2014-03-28 06:27:00,
2014-03-27 23:42:00,51.7,47.0,30.12,SW,225,0.0,-999.0,84,-99.99,,,0.01,weatherlink.com 1.10,2014-03-28 06:42:00,
2014-03-27 23:57:00,50.9,47.0,30.12,SW,225,0.0,-999.0,85,-99.99,,,0.01,weatherlink.com 1.10,2014-03-28 06:57:00,